sensor_id;sensor_type;location;lat;lon;timestamp;temperature;humidity
59572;DHT22;70118;45.638;11.714;2023-08-21T00:00:08;30.30;75.60
59572;DHT22;70118;45.638;11.714;2023-08-21T00:02:34;30.20;75.50
59572;DHT22;70118;45.638;11.714;2023-08-21T00:05:00;30.30;75.50
59572;DHT22;70118;45.638;11.714;2023-08-21T00:07:26;30.20;75.50
59572;DHT22;70118;45.638;11.714;2023-08-21T00:09:52;30.20;75.60
59572;DHT22;70118;45.638;11.714;2023-08-21T00:12:17;30.30;75.60
59572;DHT22;70118;45.638;11.714;2023-08-21T00:14:43;30.30;75.70
59572;DHT22;70118;45.638;11.714;2023-08-21T00:17:09;30.20;75.70
59572;DHT22;70118;45.638;11.714;2023-08-21T00:19:35;30.20;75.70
59572;DHT22;70118;45.638;11.714;2023-08-21T00:22:01;30.20;75.90
59572;DHT22;70118;45.638;11.714;2023-08-21T00:24:27;30.20;75.90
59572;DHT22;70118;45.638;11.714;2023-08-21T00:26:53;30.20;76.00
59572;DHT22;70118;45.638;11.714;2023-08-21T00:29:18;30.20;76.00
59572;DHT22;70118;45.638;11.714;2023-08-21T00:31:44;30.30;76.20
59572;DHT22;70118;45.638;11.714;2023-08-21T00:34:10;30.30;76.10
59572;DHT22;70118;45.638;11.714;2023-08-21T00:36:36;30.30;76.00
59572;DHT22;70118;45.638;11.714;2023-08-21T00:39:02;30.20;76.20
59572;DHT22;70118;45.638;11.714;2023-08-21T00:41:28;30.20;76.10
59572;DHT22;70118;45.638;11.714;2023-08-21T00:43:54;30.30;76.10
59572;DHT22;70118;45.638;11.714;2023-08-21T00:46:20;30.20;76.10
59572;DHT22;70118;45.638;11.714;2023-08-21T00:48:45;30.10;76.10
59572;DHT22;70118;45.638;11.714;2023-08-21T00:51:14;30.20;76.10
59572;DHT22;70118;45.638;11.714;2023-08-21T00:53:42;30.20;76.30
59572;DHT22;70118;45.638;11.714;2023-08-21T00:56:08;30.20;76.30
59572;DHT22;70118;45.638;11.714;2023-08-21T00:58:34;30.20;76.50
59572;DHT22;70118;45.638;11.714;2023-08-21T01:01:00;30.30;76.50
59572;DHT22;70118;45.638;11.714;2023-08-21T01:03:26;30.30;76.70
59572;DHT22;70118;45.638;11.714;2023-08-21T01:05:54;30.30;76.90
59572;DHT22;70118;45.638;11.714;2023-08-21T01:08:28;30.30;76.90
59572;DHT22;70118;45.638;11.714;2023-08-21T01:16:27;30.30;77.00
59572;DHT22;70118;45.638;11.714;2023-08-21T01:18:54;30.30;76.90
59572;DHT22;70118;45.638;11.714;2023-08-21T01:21:22;30.20;77.00
59572;DHT22;70118;45.638;11.714;2023-08-21T01:23:49;30.20;76.80
59572;DHT22;70118;45.638;11.714;2023-08-21T01:26:14;30.20;76.80
59572;DHT22;70118;45.638;11.714;2023-08-21T01:28:40;30.30;76.80
59572;DHT22;70118;45.638;11.714;2023-08-21T01:31:33;30.30;76.70
59572;DHT22;70118;45.638;11.714;2023-08-21T01:34:04;30.20;76.80
59572;DHT22;70118;45.638;11.714;2023-08-21T01:36:32;30.20;76.90
59572;DHT22;70118;45.638;11.714;2023-08-21T01:38:58;30.20;76.80
59572;DHT22;70118;45.638;11.714;2023-08-21T01:41:24;30.20;76.70
59572;DHT22;70118;45.638;11.714;2023-08-21T01:43:51;30.20;76.80
59572;DHT22;70118;45.638;11.714;2023-08-21T01:46:17;30.20;76.90
59572;DHT22;70118;45.638;11.714;2023-08-21T01:48:43;30.20;76.90
59572;DHT22;70118;45.638;11.714;2023-08-21T01:51:09;30.20;76.90
59572;DHT22;70118;45.638;11.714;2023-08-21T01:53:35;30.20;77.00
59572;DHT22;70118;45.638;11.714;2023-08-21T01:56:01;30.20;77.10
59572;DHT22;70118;45.638;11.714;2023-08-21T01:58:26;30.20;77.10
59572;DHT22;70118;45.638;11.714;2023-08-21T02:00:52;30.20;77.20
59572;DHT22;70118;45.638;11.714;2023-08-21T02:03:18;30.30;77.40
59572;DHT22;70118;45.638;11.714;2023-08-21T02:05:44;30.20;77.50
59572;DHT22;70118;45.638;11.714;2023-08-21T02:08:14;30.30;77.40
59572;DHT22;70118;45.638;11.714;2023-08-21T02:10:52;30.10;77.40
59572;DHT22;70118;45.638;11.714;2023-08-21T02:13:18;30.10;77.50
59572;DHT22;70118;45.638;11.714;2023-08-21T02:15:44;30.20;77.40
59572;DHT22;70118;45.638;11.714;2023-08-21T02:18:10;30.20;77.50
59572;DHT22;70118;45.638;11.714;2023-08-21T02:20:36;30.10;77.40
59572;DHT22;70118;45.638;11.714;2023-08-21T02:23:02;30.10;77.40
59572;DHT22;70118;45.638;11.714;2023-08-21T02:25:29;30.10;77.30
59572;DHT22;70118;45.638;11.714;2023-08-21T02:27:55;30.20;77.30
59572;DHT22;70118;45.638;11.714;2023-08-21T02:30:21;30.30;77.30
59572;DHT22;70118;45.638;11.714;2023-08-21T02:32:51;30.20;77.40
59572;DHT22;70118;45.638;11.714;2023-08-21T02:35:17;30.20;77.20
59572;DHT22;70118;45.638;11.714;2023-08-21T02:37:43;30.20;77.20
59572;DHT22;70118;45.638;11.714;2023-08-21T02:40:09;30.20;77.40
59572;DHT22;70118;45.638;11.714;2023-08-21T02:42:35;30.20;77.30
59572;DHT22;70118;45.638;11.714;2023-08-21T02:45:02;30.20;77.30
59572;DHT22;70118;45.638;11.714;2023-08-21T02:47:30;30.20;77.30
59572;DHT22;70118;45.638;11.714;2023-08-21T02:49:55;30.20;77.30
59572;DHT22;70118;45.638;11.714;2023-08-21T02:52:21;30.10;77.20
59572;DHT22;70118;45.638;11.714;2023-08-21T02:54:47;30.10;77.30
59572;DHT22;70118;45.638;11.714;2023-08-21T02:57:13;30.10;77.20
59572;DHT22;70118;45.638;11.714;2023-08-21T02:59:39;30.10;77.40
59572;DHT22;70118;45.638;11.714;2023-08-21T03:02:04;30.10;77.30
59572;DHT22;70118;45.638;11.714;2023-08-21T03:04:30;30.10;77.40
59572;DHT22;70118;45.638;11.714;2023-08-21T03:06:56;30.10;77.30
59572;DHT22;70118;45.638;11.714;2023-08-21T03:09:22;30.20;77.50
59572;DHT22;70118;45.638;11.714;2023-08-21T03:11:48;30.00;77.40
59572;DHT22;70118;45.638;11.714;2023-08-21T03:14:13;30.20;77.50
59572;DHT22;70118;45.638;11.714;2023-08-21T03:16:39;30.10;77.50
59572;DHT22;70118;45.638;11.714;2023-08-21T03:19:05;30.20;77.40
59572;DHT22;70118;45.638;11.714;2023-08-21T03:21:31;30.10;77.50
59572;DHT22;70118;45.638;11.714;2023-08-21T03:24:00;30.10;77.40
59572;DHT22;70118;45.638;11.714;2023-08-21T03:26:28;30.10;77.50
59572;DHT22;70118;45.638;11.714;2023-08-21T03:28:54;30.20;77.30
59572;DHT22;70118;45.638;11.714;2023-08-21T03:31:20;30.10;77.40
59572;DHT22;70118;45.638;11.714;2023-08-21T03:33:48;30.10;77.50
59572;DHT22;70118;45.638;11.714;2023-08-21T03:36:15;30.10;77.40
59572;DHT22;70118;45.638;11.714;2023-08-21T03:38:41;30.10;77.40
59572;DHT22;70118;45.638;11.714;2023-08-21T03:41:07;30.10;77.50
59572;DHT22;70118;45.638;11.714;2023-08-21T03:43:33;30.10;77.40
59572;DHT22;70118;45.638;11.714;2023-08-21T03:45:58;30.10;77.50
59572;DHT22;70118;45.638;11.714;2023-08-21T03:48:24;30.10;77.50
59572;DHT22;70118;45.638;11.714;2023-08-21T03:50:50;30.20;77.50
59572;DHT22;70118;45.638;11.714;2023-08-21T03:53:16;30.20;77.40
59572;DHT22;70118;45.638;11.714;2023-08-21T03:55:42;30.00;77.60
59572;DHT22;70118;45.638;11.714;2023-08-21T03:58:08;30.10;77.70
59572;DHT22;70118;45.638;11.714;2023-08-21T04:00:34;30.00;77.80
59572;DHT22;70118;45.638;11.714;2023-08-21T04:02:59;30.00;77.90
59572;DHT22;70118;45.638;11.714;2023-08-21T04:05:25;30.00;77.90
59572;DHT22;70118;45.638;11.714;2023-08-21T04:07:51;30.00;77.90
59572;DHT22;70118;45.638;11.714;2023-08-21T04:10:17;30.00;77.90
59572;DHT22;70118;45.638;11.714;2023-08-21T04:12:43;30.00;77.80
59572;DHT22;70118;45.638;11.714;2023-08-21T04:15:09;30.10;77.80
59572;DHT22;70118;45.638;11.714;2023-08-21T04:17:35;30.10;77.60
59572;DHT22;70118;45.638;11.714;2023-08-21T04:20:01;30.10;77.50
59572;DHT22;70118;45.638;11.714;2023-08-21T04:22:27;30.00;77.70
59572;DHT22;70118;45.638;11.714;2023-08-21T04:24:52;30.00;77.50
59572;DHT22;70118;45.638;11.714;2023-08-21T04:27:18;29.90;77.70
59572;DHT22;70118;45.638;11.714;2023-08-21T04:29:44;30.00;77.70
59572;DHT22;70118;45.638;11.714;2023-08-21T04:32:10;30.00;77.50
59572;DHT22;70118;45.638;11.714;2023-08-21T04:34:36;29.90;77.70
59572;DHT22;70118;45.638;11.714;2023-08-21T04:37:02;29.90;77.70
59572;DHT22;70118;45.638;11.714;2023-08-21T04:39:28;29.90;77.70
59572;DHT22;70118;45.638;11.714;2023-08-21T04:41:53;29.90;77.60
59572;DHT22;70118;45.638;11.714;2023-08-21T04:44:19;30.00;77.60
59572;DHT22;70118;45.638;11.714;2023-08-21T04:46:48;29.70;78.70
59572;DHT22;70118;45.638;11.714;2023-08-21T04:49:14;29.50;80.10
59572;DHT22;70118;45.638;11.714;2023-08-21T04:51:40;29.30;80.70
59572;DHT22;70118;45.638;11.714;2023-08-21T04:54:06;29.00;81.00
59572;DHT22;70118;45.638;11.714;2023-08-21T04:56:32;28.90;81.70
59572;DHT22;70118;45.638;11.714;2023-08-21T04:58:58;28.80;81.70
59572;DHT22;70118;45.638;11.714;2023-08-21T05:01:24;28.90;81.70
59572;DHT22;70118;45.638;11.714;2023-08-21T05:03:51;28.90;82.00
59572;DHT22;70118;45.638;11.714;2023-08-21T05:06:17;28.90;83.30
59572;DHT22;70118;45.638;11.714;2023-08-21T05:08:43;28.80;83.70
59572;DHT22;70118;45.638;11.714;2023-08-21T05:11:09;28.70;83.30
59572;DHT22;70118;45.638;11.714;2023-08-21T05:13:35;28.90;82.10
59572;DHT22;70118;45.638;11.714;2023-08-21T05:16:01;29.00;80.60
59572;DHT22;70118;45.638;11.714;2023-08-21T05:18:27;29.20;80.40
59572;DHT22;70118;45.638;11.714;2023-08-21T05:20:55;29.40;80.00
59572;DHT22;70118;45.638;11.714;2023-08-21T05:23:21;29.40;79.60
59572;DHT22;70118;45.638;11.714;2023-08-21T05:25:48;29.60;79.50
59572;DHT22;70118;45.638;11.714;2023-08-21T05:28:16;29.60;79.30
59572;DHT22;70118;45.638;11.714;2023-08-21T05:30:41;29.70;79.30
59572;DHT22;70118;45.638;11.714;2023-08-21T05:33:07;29.70;78.90
59572;DHT22;70118;45.638;11.714;2023-08-21T05:35:35;29.80;78.80
59572;DHT22;70118;45.638;11.714;2023-08-21T05:38:05;29.80;78.90
59572;DHT22;70118;45.638;11.714;2023-08-21T05:40:31;29.80;80.90
59572;DHT22;70118;45.638;11.714;2023-08-21T05:42:57;29.60;81.60
59572;DHT22;70118;45.638;11.714;2023-08-21T05:45:23;29.50;80.60
59572;DHT22;70118;45.638;11.714;2023-08-21T05:47:49;29.50;80.10
59572;DHT22;70118;45.638;11.714;2023-08-21T05:50:15;29.60;79.90
59572;DHT22;70118;45.638;11.714;2023-08-21T05:52:41;29.70;79.60
59572;DHT22;70118;45.638;11.714;2023-08-21T05:55:07;29.80;79.40
59572;DHT22;70118;45.638;11.714;2023-08-21T05:57:33;29.90;79.20
59572;DHT22;70118;45.638;11.714;2023-08-21T05:59:58;29.90;79.10
59572;DHT22;70118;45.638;11.714;2023-08-21T06:02:25;29.80;78.90
59572;DHT22;70118;45.638;11.714;2023-08-21T06:04:50;30.00;78.90
59572;DHT22;70118;45.638;11.714;2023-08-21T06:07:16;30.00;78.80
59572;DHT22;70118;45.638;11.714;2023-08-21T06:09:42;30.00;78.70
59572;DHT22;70118;45.638;11.714;2023-08-21T06:12:08;30.00;78.50
59572;DHT22;70118;45.638;11.714;2023-08-21T06:14:34;30.10;77.60
59572;DHT22;70118;45.638;11.714;2023-08-21T06:17:02;30.00;76.80
59572;DHT22;70118;45.638;11.714;2023-08-21T06:19:28;30.10;76.20
59572;DHT22;70118;45.638;11.714;2023-08-21T06:21:55;30.10;76.20
59572;DHT22;70118;45.638;11.714;2023-08-21T06:24:22;30.10;76.10
59572;DHT22;70118;45.638;11.714;2023-08-21T06:26:48;30.10;76.40
59572;DHT22;70118;45.638;11.714;2023-08-21T06:29:14;30.10;76.10
59572;DHT22;70118;45.638;11.714;2023-08-21T06:31:40;30.10;75.90
59572;DHT22;70118;45.638;11.714;2023-08-21T06:34:05;30.00;75.90
59572;DHT22;70118;45.638;11.714;2023-08-21T06:36:31;30.10;75.80
59572;DHT22;70118;45.638;11.714;2023-08-21T06:38:57;29.90;75.70
59572;DHT22;70118;45.638;11.714;2023-08-21T06:41:23;30.00;75.70
59572;DHT22;70118;45.638;11.714;2023-08-21T06:43:51;30.00;75.70
59572;DHT22;70118;45.638;11.714;2023-08-21T06:46:16;30.10;75.60
59572;DHT22;70118;45.638;11.714;2023-08-21T06:48:42;30.10;75.70
59572;DHT22;70118;45.638;11.714;2023-08-21T06:51:09;30.10;75.70
59572;DHT22;70118;45.638;11.714;2023-08-21T06:53:36;30.00;75.60
59572;DHT22;70118;45.638;11.714;2023-08-21T06:56:02;30.00;75.40
59572;DHT22;70118;45.638;11.714;2023-08-21T06:58:29;30.10;75.40
59572;DHT22;70118;45.638;11.714;2023-08-21T07:00:55;30.10;75.30
59572;DHT22;70118;45.638;11.714;2023-08-21T07:03:22;30.00;75.30
59572;DHT22;70118;45.638;11.714;2023-08-21T07:05:56;29.90;74.90
59572;DHT22;70118;45.638;11.714;2023-08-21T07:08:23;30.00;75.00
59572;DHT22;70118;45.638;11.714;2023-08-21T07:10:49;30.00;74.80
59572;DHT22;70118;45.638;11.714;2023-08-21T07:13:15;29.90;74.70
59572;DHT22;70118;45.638;11.714;2023-08-21T07:15:41;30.00;74.60
59572;DHT22;70118;45.638;11.714;2023-08-21T07:18:07;30.00;74.60
59572;DHT22;70118;45.638;11.714;2023-08-21T07:20:34;30.10;74.40
59572;DHT22;70118;45.638;11.714;2023-08-21T07:23:00;30.00;74.50
59572;DHT22;70118;45.638;11.714;2023-08-21T07:25:26;30.00;74.30
59572;DHT22;70118;45.638;11.714;2023-08-21T07:27:54;30.00;74.30
59572;DHT22;70118;45.638;11.714;2023-08-21T07:30:23;30.00;74.10
59572;DHT22;70118;45.638;11.714;2023-08-21T07:32:53;30.00;74.20
59572;DHT22;70118;45.638;11.714;2023-08-21T07:35:19;30.00;74.10
59572;DHT22;70118;45.638;11.714;2023-08-21T07:37:46;30.00;74.10
59572;DHT22;70118;45.638;11.714;2023-08-21T07:40:13;30.00;73.90
59572;DHT22;70118;45.638;11.714;2023-08-21T07:42:41;30.00;73.90
59572;DHT22;70118;45.638;11.714;2023-08-21T07:45:09;30.00;73.80
59572;DHT22;70118;45.638;11.714;2023-08-21T07:47:35;30.00;73.80
59572;DHT22;70118;45.638;11.714;2023-08-21T07:50:05;30.00;73.60
59572;DHT22;70118;45.638;11.714;2023-08-21T07:52:32;30.00;73.70
59572;DHT22;70118;45.638;11.714;2023-08-21T07:55:01;30.00;73.70
59572;DHT22;70118;45.638;11.714;2023-08-21T07:57:29;29.90;73.60
59572;DHT22;70118;45.638;11.714;2023-08-21T07:59:55;30.00;73.60
59572;DHT22;70118;45.638;11.714;2023-08-21T08:02:21;30.00;73.60
59572;DHT22;70118;45.638;11.714;2023-08-21T08:04:47;30.00;73.60
59572;DHT22;70118;45.638;11.714;2023-08-21T08:07:13;30.00;73.50
59572;DHT22;70118;45.638;11.714;2023-08-21T08:09:39;30.00;73.30
59572;DHT22;70118;45.638;11.714;2023-08-21T08:12:06;30.10;73.50
59572;DHT22;70118;45.638;11.714;2023-08-21T08:14:32;30.00;73.40
59572;DHT22;70118;45.638;11.714;2023-08-21T08:16:58;30.10;73.30
59572;DHT22;70118;45.638;11.714;2023-08-21T08:19:24;30.00;73.40
59572;DHT22;70118;45.638;11.714;2023-08-21T08:21:51;30.00;73.20
59572;DHT22;70118;45.638;11.714;2023-08-21T08:24:17;30.00;73.20
59572;DHT22;70118;45.638;11.714;2023-08-21T08:26:43;30.00;73.20
59572;DHT22;70118;45.638;11.714;2023-08-21T08:29:09;30.00;73.10
59572;DHT22;70118;45.638;11.714;2023-08-21T08:31:35;30.00;73.00
59572;DHT22;70118;45.638;11.714;2023-08-21T08:34:01;29.90;72.80
59572;DHT22;70118;45.638;11.714;2023-08-21T08:36:27;30.00;72.70
59572;DHT22;70118;45.638;11.714;2023-08-21T08:38:53;30.00;72.50
59572;DHT22;70118;45.638;11.714;2023-08-21T08:41:26;30.00;72.50
59572;DHT22;70118;45.638;11.714;2023-08-21T08:43:57;30.00;72.30
59572;DHT22;70118;45.638;11.714;2023-08-21T08:46:24;30.00;72.30
59572;DHT22;70118;45.638;11.714;2023-08-21T08:48:54;29.90;72.30
59572;DHT22;70118;45.638;11.714;2023-08-21T08:51:20;29.90;72.20
59572;DHT22;70118;45.638;11.714;2023-08-21T08:53:47;29.90;72.20
59572;DHT22;70118;45.638;11.714;2023-08-21T08:56:14;29.90;72.20
59572;DHT22;70118;45.638;11.714;2023-08-21T08:58:39;29.90;71.90
59572;DHT22;70118;45.638;11.714;2023-08-21T09:01:09;29.90;71.90
59572;DHT22;70118;45.638;11.714;2023-08-21T09:03:38;29.80;71.90
59572;DHT22;70118;45.638;11.714;2023-08-21T09:06:04;29.80;71.80
59572;DHT22;70118;45.638;11.714;2023-08-21T09:08:31;29.90;71.80
59572;DHT22;70118;45.638;11.714;2023-08-21T09:11:01;29.80;71.70
59572;DHT22;70118;45.638;11.714;2023-08-21T09:13:27;29.90;71.30
59572;DHT22;70118;45.638;11.714;2023-08-21T09:15:55;29.80;71.50
59572;DHT22;70118;45.638;11.714;2023-08-21T09:18:21;29.80;71.30
59572;DHT22;70118;45.638;11.714;2023-08-21T09:20:47;29.80;71.00
59572;DHT22;70118;45.638;11.714;2023-08-21T09:23:15;29.80;70.90
59572;DHT22;70118;45.638;11.714;2023-08-21T09:25:47;29.90;70.70
59572;DHT22;70118;45.638;11.714;2023-08-21T09:28:14;29.80;70.70
59572;DHT22;70118;45.638;11.714;2023-08-21T09:30:44;29.80;70.60
59572;DHT22;70118;45.638;11.714;2023-08-21T09:33:11;29.80;70.50
59572;DHT22;70118;45.638;11.714;2023-08-21T09:35:37;29.80;70.40
59572;DHT22;70118;45.638;11.714;2023-08-21T09:38:03;29.80;70.30
59572;DHT22;70118;45.638;11.714;2023-08-21T09:40:30;29.90;70.10
59572;DHT22;70118;45.638;11.714;2023-08-21T09:42:56;29.80;70.40
59572;DHT22;70118;45.638;11.714;2023-08-21T09:45:23;29.90;69.90
59572;DHT22;70118;45.638;11.714;2023-08-21T09:47:51;29.90;69.80
59572;DHT22;70118;45.638;11.714;2023-08-21T09:50:18;29.80;69.60
59572;DHT22;70118;45.638;11.714;2023-08-21T09:52:44;29.80;69.80
59572;DHT22;70118;45.638;11.714;2023-08-21T09:55:14;29.90;69.70
59572;DHT22;70118;45.638;11.714;2023-08-21T09:57:41;29.80;69.60
59572;DHT22;70118;45.638;11.714;2023-08-21T10:00:08;29.80;69.60
59572;DHT22;70118;45.638;11.714;2023-08-21T10:02:49;29.80;69.70
59572;DHT22;70118;45.638;11.714;2023-08-21T10:05:19;29.80;69.80
59572;DHT22;70118;45.638;11.714;2023-08-21T10:07:49;29.80;69.60
59572;DHT22;70118;45.638;11.714;2023-08-21T10:10:17;29.80;69.90
59572;DHT22;70118;45.638;11.714;2023-08-21T10:12:43;29.80;69.70
59572;DHT22;70118;45.638;11.714;2023-08-21T10:15:09;29.80;69.50
59572;DHT22;70118;45.638;11.714;2023-08-21T10:17:38;29.70;69.50
59572;DHT22;70118;45.638;11.714;2023-08-21T10:20:05;29.80;69.70
59572;DHT22;70118;45.638;11.714;2023-08-21T10:22:45;29.80;69.90
59572;DHT22;70118;45.638;11.714;2023-08-21T10:25:19;29.70;70.00
59572;DHT22;70118;45.638;11.714;2023-08-21T10:28:06;29.80;70.60
59572;DHT22;70118;45.638;11.714;2023-08-21T10:30:33;29.80;71.00
59572;DHT22;70118;45.638;11.714;2023-08-21T10:32:59;29.90;70.90
59572;DHT22;70118;45.638;11.714;2023-08-21T10:35:29;29.80;71.00
59572;DHT22;70118;45.638;11.714;2023-08-21T10:38:12;29.80;71.30
59572;DHT22;70118;45.638;11.714;2023-08-21T10:41:14;29.90;71.30
59572;DHT22;70118;45.638;11.714;2023-08-21T10:43:40;29.90;71.30
59572;DHT22;70118;45.638;11.714;2023-08-21T10:46:07;29.90;71.30
59572;DHT22;70118;45.638;11.714;2023-08-21T10:48:35;29.80;71.30
59572;DHT22;70118;45.638;11.714;2023-08-21T10:51:06;29.80;71.50
59572;DHT22;70118;45.638;11.714;2023-08-21T10:53:33;29.80;71.50
59572;DHT22;70118;45.638;11.714;2023-08-21T10:56:05;29.80;71.60
59572;DHT22;70118;45.638;11.714;2023-08-21T10:58:44;29.90;71.60
59572;DHT22;70118;45.638;11.714;2023-08-21T11:01:16;29.80;71.10
59572;DHT22;70118;45.638;11.714;2023-08-21T11:03:46;29.90;71.10
59572;DHT22;70118;45.638;11.714;2023-08-21T11:06:19;29.90;71.00
59572;DHT22;70118;45.638;11.714;2023-08-21T11:08:45;29.90;70.90
59572;DHT22;70118;45.638;11.714;2023-08-21T11:11:11;29.90;70.40
59572;DHT22;70118;45.638;11.714;2023-08-21T11:13:36;29.90;70.70
59572;DHT22;70118;45.638;11.714;2023-08-21T11:16:04;29.80;70.70
59572;DHT22;70118;45.638;11.714;2023-08-21T11:18:36;29.90;70.60
59572;DHT22;70118;45.638;11.714;2023-08-21T11:21:11;29.80;70.70
59572;DHT22;70118;45.638;11.714;2023-08-21T11:23:41;29.90;71.40
59572;DHT22;70118;45.638;11.714;2023-08-21T11:26:11;29.80;71.80
59572;DHT22;70118;45.638;11.714;2023-08-21T11:28:38;29.80;71.60
59572;DHT22;70118;45.638;11.714;2023-08-21T11:31:06;29.90;72.10
59572;DHT22;70118;45.638;11.714;2023-08-21T11:33:32;30.00;72.00
59572;DHT22;70118;45.638;11.714;2023-08-21T11:36:00;29.90;72.20
59572;DHT22;70118;45.638;11.714;2023-08-21T11:38:27;30.00;72.40
59572;DHT22;70118;45.638;11.714;2023-08-21T11:41:00;30.00;72.40
59572;DHT22;70118;45.638;11.714;2023-08-21T11:43:37;30.00;72.50
59572;DHT22;70118;45.638;11.714;2023-08-21T11:46:07;30.00;72.50
59572;DHT22;70118;45.638;11.714;2023-08-21T11:48:37;30.00;72.70
59572;DHT22;70118;45.638;11.714;2023-08-21T11:51:03;30.00;72.60
59572;DHT22;70118;45.638;11.714;2023-08-21T11:53:39;30.10;72.90
59572;DHT22;70118;45.638;11.714;2023-08-21T11:56:16;30.10;72.60
59572;DHT22;70118;45.638;11.714;2023-08-21T11:58:43;30.10;72.20
59572;DHT22;70118;45.638;11.714;2023-08-21T12:01:15;30.10;72.10
59572;DHT22;70118;45.638;11.714;2023-08-21T12:03:41;30.10;71.90
59572;DHT22;70118;45.638;11.714;2023-08-21T12:06:11;30.00;71.20
59572;DHT22;70118;45.638;11.714;2023-08-21T12:08:38;30.00;71.00
59572;DHT22;70118;45.638;11.714;2023-08-21T12:11:05;30.00;70.40
59572;DHT22;70118;45.638;11.714;2023-08-21T12:13:31;30.00;70.20
59572;DHT22;70118;45.638;11.714;2023-08-21T12:15:57;30.00;70.00
59572;DHT22;70118;45.638;11.714;2023-08-21T12:18:23;29.90;69.30
59572;DHT22;70118;45.638;11.714;2023-08-21T12:20:49;30.00;69.20
59572;DHT22;70118;45.638;11.714;2023-08-21T12:23:15;29.90;69.30
59572;DHT22;70118;45.638;11.714;2023-08-21T12:25:40;29.90;68.90
59572;DHT22;70118;45.638;11.714;2023-08-21T12:28:10;29.80;69.10
59572;DHT22;70118;45.638;11.714;2023-08-21T12:30:38;29.80;69.00
59572;DHT22;70118;45.638;11.714;2023-08-21T12:33:06;29.90;69.30
59572;DHT22;70118;45.638;11.714;2023-08-21T12:35:35;29.80;68.80
59572;DHT22;70118;45.638;11.714;2023-08-21T12:38:11;29.80;68.70
59572;DHT22;70118;45.638;11.714;2023-08-21T12:40:39;29.80;68.50
59572;DHT22;70118;45.638;11.714;2023-08-21T12:43:04;29.90;68.30
59572;DHT22;70118;45.638;11.714;2023-08-21T12:45:30;29.90;68.60
59572;DHT22;70118;45.638;11.714;2023-08-21T12:47:56;29.80;68.10
59572;DHT22;70118;45.638;11.714;2023-08-21T12:50:22;29.80;68.20
59572;DHT22;70118;45.638;11.714;2023-08-21T12:52:48;29.80;68.10
59572;DHT22;70118;45.638;11.714;2023-08-21T12:55:14;29.80;67.80
59572;DHT22;70118;45.638;11.714;2023-08-21T12:57:39;29.80;67.70
59572;DHT22;70118;45.638;11.714;2023-08-21T13:00:06;29.80;67.80
59572;DHT22;70118;45.638;11.714;2023-08-21T13:02:32;29.80;67.80
59572;DHT22;70118;45.638;11.714;2023-08-21T13:04:58;29.70;67.60
59572;DHT22;70118;45.638;11.714;2023-08-21T13:07:25;29.90;67.80
59572;DHT22;70118;45.638;11.714;2023-08-21T13:09:50;29.70;67.70
59572;DHT22;70118;45.638;11.714;2023-08-21T13:12:17;29.80;67.40
59572;DHT22;70118;45.638;11.714;2023-08-21T13:14:47;29.80;67.60
59572;DHT22;70118;45.638;11.714;2023-08-21T13:17:14;29.70;67.70
59572;DHT22;70118;45.638;11.714;2023-08-21T13:19:41;29.80;67.10
59572;DHT22;70118;45.638;11.714;2023-08-21T13:22:07;29.60;66.90
59572;DHT22;70118;45.638;11.714;2023-08-21T13:24:33;29.80;67.20
59572;DHT22;70118;45.638;11.714;2023-08-21T13:27:00;29.70;67.30
59572;DHT22;70118;45.638;11.714;2023-08-21T13:29:28;29.70;67.10
59572;DHT22;70118;45.638;11.714;2023-08-21T13:31:59;29.70;67.10
59572;DHT22;70118;45.638;11.714;2023-08-21T13:34:27;29.60;66.80
59572;DHT22;70118;45.638;11.714;2023-08-21T13:36:54;29.70;67.10
59572;DHT22;70118;45.638;11.714;2023-08-21T13:39:21;29.70;67.00
59572;DHT22;70118;45.638;11.714;2023-08-21T13:41:49;29.70;66.80
59572;DHT22;70118;45.638;11.714;2023-08-21T13:44:18;29.70;66.60
59572;DHT22;70118;45.638;11.714;2023-08-21T13:46:47;29.80;66.70
59572;DHT22;70118;45.638;11.714;2023-08-21T13:49:14;29.70;66.60
59572;DHT22;70118;45.638;11.714;2023-08-21T13:51:41;29.80;66.70
59572;DHT22;70118;45.638;11.714;2023-08-21T13:54:11;29.70;66.50
59572;DHT22;70118;45.638;11.714;2023-08-21T13:56:42;29.70;66.80
59572;DHT22;70118;45.638;11.714;2023-08-21T13:59:09;29.70;66.60
59572;DHT22;70118;45.638;11.714;2023-08-21T14:01:36;29.80;66.50
59572;DHT22;70118;45.638;11.714;2023-08-21T14:04:03;29.70;66.40
59572;DHT22;70118;45.638;11.714;2023-08-21T14:06:30;29.70;66.50
59572;DHT22;70118;45.638;11.714;2023-08-21T14:08:56;29.70;66.50
59572;DHT22;70118;45.638;11.714;2023-08-21T14:11:22;29.70;66.30
59572;DHT22;70118;45.638;11.714;2023-08-21T14:13:48;29.70;66.30
59572;DHT22;70118;45.638;11.714;2023-08-21T14:16:14;29.70;66.10
59572;DHT22;70118;45.638;11.714;2023-08-21T14:18:40;29.70;66.00
59572;DHT22;70118;45.638;11.714;2023-08-21T14:21:06;29.70;66.10
59572;DHT22;70118;45.638;11.714;2023-08-21T14:23:32;29.70;66.10
59572;DHT22;70118;45.638;11.714;2023-08-21T14:25:58;29.70;66.40
59572;DHT22;70118;45.638;11.714;2023-08-21T14:28:23;29.60;66.00
59572;DHT22;70118;45.638;11.714;2023-08-21T14:30:49;29.70;66.00
59572;DHT22;70118;45.638;11.714;2023-08-21T14:33:17;29.70;65.80
59572;DHT22;70118;45.638;11.714;2023-08-21T14:35:43;29.70;66.00
59572;DHT22;70118;45.638;11.714;2023-08-21T14:38:09;29.70;65.90
59572;DHT22;70118;45.638;11.714;2023-08-21T14:40:35;29.70;65.60
59572;DHT22;70118;45.638;11.714;2023-08-21T14:43:01;29.60;65.60
59572;DHT22;70118;45.638;11.714;2023-08-21T14:45:27;29.70;65.80
59572;DHT22;70118;45.638;11.714;2023-08-21T14:47:53;29.70;65.50
59572;DHT22;70118;45.638;11.714;2023-08-21T14:50:18;29.70;65.80
59572;DHT22;70118;45.638;11.714;2023-08-21T14:52:44;29.70;65.50
59572;DHT22;70118;45.638;11.714;2023-08-21T14:55:10;29.70;65.60
59572;DHT22;70118;45.638;11.714;2023-08-21T14:57:36;29.80;65.50
59572;DHT22;70118;45.638;11.714;2023-08-21T15:00:02;29.60;65.80
59572;DHT22;70118;45.638;11.714;2023-08-21T15:02:29;29.70;65.50
59572;DHT22;70118;45.638;11.714;2023-08-21T15:04:55;29.70;65.70
59572;DHT22;70118;45.638;11.714;2023-08-21T15:07:21;29.80;65.60
59572;DHT22;70118;45.638;11.714;2023-08-21T15:09:46;29.70;65.50
59572;DHT22;70118;45.638;11.714;2023-08-21T15:12:13;29.70;65.80
59572;DHT22;70118;45.638;11.714;2023-08-21T15:14:39;29.70;65.50
59572;DHT22;70118;45.638;11.714;2023-08-21T15:17:04;29.80;65.50
59572;DHT22;70118;45.638;11.714;2023-08-21T15:19:30;29.80;65.50